Time;durP1;ratioP1;P1;durP2;ratioP2;P2;SDS_P1;SDS_P2;PMS_P1;PMS_P2;Temp;Humidity;BMP_temperature;BMP_pressure;BME280_temperature;BME280_humidity;BME280_pressure;Samples;Min_cycle;Max_cycle;Signal;HPM_P1;HPM_P2
2023/02/14 00:01:50;;;;;;;83.77;57.13;;;6.20;99.90;;;;;;4952474;28;20803;-78
2023/02/14 00:04:16;;;;;;;78.50;54.53;;;6.20;99.90;;;;;;4937529;29;20043;-78
2023/02/14 00:06:43;;;;;;;79.73;54.50;;;6.20;99.90;;;;;;4935293;29;20027;-78
2023/02/14 00:09:14;;;;;;;80.77;53.43;;;6.20;99.90;;;;;;4950559;29;20024;-79
2023/02/14 00:11:40;;;;;;;79.63;53.83;;;6.20;99.90;;;;;;4951840;29;20031;-79
2023/02/14 00:16:51;;;;;;;83.10;53.50;;;6.10;99.90;;;;;;4953535;28;20515;-78
2023/02/14 00:19:18;;;;;;;82.10;55.10;;;6.00;99.90;;;;;;4939593;28;20069;-78
2023/02/14 00:21:44;;;;;;;75.97;55.03;;;6.00;99.90;;;;;;4962853;28;20039;-78
2023/02/14 00:24:16;;;;;;;84.70;57.77;;;6.00;99.90;;;;;;4955234;28;20045;-78
2023/02/14 00:26:42;;;;;;;82.17;56.43;;;6.00;99.90;;;;;;4925066;28;20051;-79
2023/02/14 00:29:10;;;;;;;82.83;56.50;;;6.00;99.90;;;;;;4921765;29;20416;-78
2023/02/14 00:31:36;;;;;;;81.60;55.73;;;6.00;99.90;;;;;;4962103;28;20038;-78
2023/02/14 00:34:03;;;;;;;89.63;57.97;;;5.90;99.90;;;;;;4952142;28;20615;-78
2023/02/14 00:36:29;;;;;;;79.10;56.93;;;5.70;99.90;;;;;;4955972;28;20373;-79
2023/02/14 00:38:55;;;;;;;81.97;54.97;;;5.50;99.90;;;;;;4969143;28;20043;-79
2023/02/14 00:41:21;;;;;;;80.50;54.70;;;5.50;99.90;;;;;;4940255;28;20061;-78
2023/02/14 00:43:48;;;;;;;82.33;56.37;;;5.50;99.90;;;;;;4972675;28;20038;-79
2023/02/14 00:46:14;;;;;;;84.10;56.90;;;5.00;99.90;;;;;;4936718;28;20051;-78
2023/02/14 00:48:41;;;;;;;87.23;54.80;;;4.60;99.90;;;;;;4958784;28;20050;-79
2023/02/14 00:51:07;;;;;;;86.37;56.57;;;4.40;99.90;;;;;;4942753;28;20030;-78
2023/02/14 00:53:33;;;;;;;88.93;55.50;;;4.50;99.90;;;;;;4958683;28;20388;-78
2023/02/14 00:55:59;;;;;;;90.00;56.53;;;4.70;99.90;;;;;;4960093;28;20035;-80
2023/02/14 00:58:25;;;;;;;82.00;54.50;;;4.80;99.90;;;;;;4940464;28;20416;-80
2023/02/14 01:00:51;;;;;;;80.63;53.97;;;5.00;99.90;;;;;;4972405;28;20050;-79
2023/02/14 01:03:18;;;;;;;75.23;52.57;;;5.00;99.90;;;;;;4954945;28;20042;-78
2023/02/14 01:05:44;;;;;;;81.67;54.67;;;5.00;99.90;;;;;;4942837;28;20039;-78
2023/02/14 01:08:10;;;;;;;88.50;55.17;;;5.10;99.90;;;;;;4959687;28;20054;-79
2023/02/14 01:10:36;;;;;;;83.57;56.10;;;5.00;99.90;;;;;;4959562;28;20034;-79
2023/02/14 01:13:02;;;;;;;81.47;54.77;;;5.00;99.90;;;;;;4940885;28;20046;-78
2023/02/14 01:15:29;;;;;;;84.47;56.70;;;4.90;99.90;;;;;;4948971;28;20041;-78
2023/02/14 01:17:56;;;;;;;87.70;56.20;;;5.10;99.90;;;;;;4941398;28;20041;-80
2023/02/14 01:20:22;;;;;;;80.33;55.00;;;5.10;99.90;;;;;;4961591;28;20407;-80
2023/02/14 01:22:48;;;;;;;83.60;56.50;;;5.10;99.90;;;;;;4958186;28;20042;-79
2023/02/14 01:25:15;;;;;;;83.50;54.57;;;5.20;99.90;;;;;;4959352;28;20042;-79
2023/02/14 01:27:41;;;;;;;82.00;55.13;;;5.20;99.90;;;;;;4976375;28;20030;-79
2023/02/14 01:30:07;;;;;;;78.57;52.73;;;5.10;99.90;;;;;;4957782;28;20038;-79
2023/02/14 01:32:33;;;;;;;75.03;50.50;;;5.10;99.90;;;;;;4958254;28;20027;-79
2023/02/14 01:34:59;;;;;;;78.30;52.53;;;5.00;99.90;;;;;;4957028;28;20507;-80
2023/02/14 01:37:25;;;;;;;75.97;50.60;;;5.00;99.90;;;;;;4972476;28;20039;-80
2023/02/14 01:39:52;;;;;;;74.73;52.43;;;4.90;99.90;;;;;;4973911;28;20039;-79
2023/02/14 01:42:18;;;;;;;79.80;52.13;;;5.00;99.90;;;;;;4967211;28;20047;-79
2023/02/14 01:44:44;;;;;;;79.23;52.07;;;5.00;99.90;;;;;;4923929;29;20381;-79
2023/02/14 01:47:10;;;;;;;80.20;52.47;;;5.00;99.90;;;;;;4971119;28;20439;-79
2023/02/14 01:49:42;;;;;;;70.70;51.20;;;5.00;99.90;;;;;;4935301;28;20035;-79
2023/02/14 01:52:14;;;;;;;74.70;50.20;;;5.00;99.90;;;;;;4951008;28;20039;-79
2023/02/14 01:54:44;;;;;;;79.83;52.13;;;5.00;99.90;;;;;;4967588;28;20094;-79
2023/02/14 01:57:12;;;;;;;75.10;51.92;;;5.00;99.90;;;;;;4933911;28;20041;-79
2023/02/14 01:59:41;;;;;;;70.80;50.00;;;5.10;99.90;;;;;;4932260;28;20038;-80
2023/02/14 02:02:07;;;;;;;72.33;49.90;;;5.00;99.90;;;;;;4950665;28;20511;-79
2023/02/14 02:04:37;;;;;;;67.77;48.77;;;5.00;99.90;;;;;;4936237;28;20038;-79
2023/02/14 02:07:09;;;;;;;77.57;52.03;;;5.10;99.90;;;;;;4951052;28;20038;-80
2023/02/14 02:09:38;;;;;;;74.67;51.77;;;5.00;99.90;;;;;;4967096;28;20027;-79
2023/02/14 02:12:04;;;;;;;72.40;51.13;;;5.00;99.90;;;;;;4948693;28;20026;-79
2023/02/14 02:14:30;;;;;;;72.33;51.13;;;5.00;99.90;;;;;;4966492;28;20038;-79
2023/02/14 02:17:15;;;;;;;72.33;50.40;;;5.00;99.90;;;;;;4950672;28;20053;-79
2023/02/14 02:19:59;;;;;;;71.23;49.77;;;5.00;99.90;;;;;;4948097;29;20054;-79
2023/02/14 02:22:53;;;;;;;62.00;45.50;;;4.90;99.90;;;;;;4949195;28;20023;-80
2023/02/14 02:25:52;;;;;;;70.10;50.53;;;4.80;99.90;;;;;;4949501;29;20070;-79
2023/02/14 02:28:46;;;;;;;67.53;49.20;;;4.70;99.90;;;;;;4946793;29;20046;-79
2023/02/14 02:31:50;;;;;;;67.00;48.77;;;4.80;99.90;;;;;;4958581;28;20046;-78
2023/02/14 02:34:49;;;;;;;64.73;46.23;;;4.60;99.90;;;;;;4963737;28;20039;-78
2023/02/14 02:37:47;;;;;;;69.97;47.40;;;4.20;99.90;;;;;;4947445;29;20023;-78
2023/02/14 02:40:16;;;;;;;66.93;47.70;;;4.10;99.90;;;;;;4944803;28;20523;-78
2023/02/14 02:43:05;;;;;;;71.73;47.23;;;4.20;99.90;;;;;;4948147;29;20046;-78
2023/02/14 02:48:40;;;;;;;67.80;47.10;;;4.20;99.90;;;;;;4965706;28;20058;-79
2023/02/14 02:53:59;;;;;;;74.00;49.53;;;4.20;99.90;;;;;;4942090;29;20107;-78
2023/02/14 02:56:46;;;;;;;67.77;47.47;;;4.30;99.90;;;;;;4937301;29;20023;-78
2023/02/14 02:59:21;;;;;;;70.07;47.83;;;4.30;99.90;;;;;;4936799;29;20509;-78
2023/02/14 03:01:53;;;;;;;66.90;47.90;;;4.30;99.90;;;;;;4964311;28;20397;-78
2023/02/14 03:07:33;;;;;;;70.20;50.20;;;4.30;99.90;;;;;;4936417;29;20046;-78
2023/02/14 03:09:56;;;;;;;70.47;49.60;;;4.30;99.90;;;;;;4931910;28;20031;-78
2023/02/14 03:12:36;;;;;;;68.70;48.43;;;4.30;99.90;;;;;;4928668;29;20829;-79
2023/02/14 03:15:26;;;;;;;69.03;47.13;;;4.30;99.90;;;;;;4944660;28;20051;-78
2023/02/14 03:17:56;;;;;;;64.47;46.40;;;4.30;99.90;;;;;;4961163;28;20047;-78
2023/02/14 03:20:23;;;;;;;67.37;48.83;;;4.30;99.90;;;;;;4945324;28;20421;-79
2023/02/14 03:23:14;;;;;;;66.53;48.13;;;4.30;99.90;;;;;;4947592;29;20062;-79
2023/02/14 03:26:04;;;;;;;67.40;45.17;;;4.30;99.90;;;;;;4960299;28;20043;-78
2023/02/14 03:28:49;;;;;;;66.90;46.75;;;4.30;99.90;;;;;;4946179;28;20038;-79
2023/02/14 03:31:38;;;;;;;60.87;45.47;;;4.30;99.90;;;;;;4951339;28;20435;-78
2023/02/14 03:34:32;;;;;;;63.17;45.43;;;4.20;99.90;;;;;;4942645;29;20054;-78
2023/02/14 03:37:07;;;;;;;60.47;46.03;;;4.10;99.90;;;;;;4948208;29;20112;-78
2023/02/14 03:39:44;;;;;;;63.63;47.57;;;4.20;99.90;;;;;;4949881;29;20023;-78
2023/02/14 03:42:15;;;;;;;66.77;47.90;;;4.20;99.90;;;;;;4945322;29;20027;-78
2023/02/14 03:44:41;;;;;;;64.88;45.88;;;4.10;99.90;;;;;;4915507;29;20039;-78
2023/02/14 03:47:10;;;;;;;66.50;46.70;;;4.00;99.90;;;;;;4936337;28;20039;-78
2023/02/14 03:49:39;;;;;;;65.20;46.70;;;4.00;99.90;;;;;;4928698;28;20030;-78
2023/02/14 03:52:05;;;;;;;71.17;49.17;;;4.00;99.90;;;;;;4915132;29;20050;-78
2023/02/14 03:54:31;;;;;;;65.03;45.20;;;4.00;99.90;;;;;;4913264;29;20501;-78
2023/02/14 03:57:23;;;;;;;64.73;45.30;;;4.00;99.90;;;;;;4929859;29;20031;-78
2023/02/14 03:59:49;;;;;;;70.80;45.47;;;4.00;99.90;;;;;;4932234;29;20050;-78
2023/02/14 04:02:37;;;;;;;60.20;43.50;;;4.00;99.90;;;;;;4949532;28;20039;-78
2023/02/14 04:05:07;;;;;;;66.97;44.97;;;3.90;99.90;;;;;;4932409;29;20500;-78
2023/02/14 04:07:42;;;;;;;68.30;46.70;;;3.90;99.90;;;;;;4919138;29;20066;-78
2023/02/14 04:10:08;;;;;;;67.07;45.07;;;3.90;99.90;;;;;;4929531;29;20425;-78
2023/02/14 04:12:34;;;;;;;62.50;43.63;;;3.80;99.90;;;;;;4950370;29;20050;-79
2023/02/14 04:15:01;;;;;;;66.57;47.67;;;3.70;99.90;;;;;;4950590;28;20031;-79
2023/02/14 04:20:11;;;;;;;70.53;44.80;;;3.60;99.90;;;;;;4941211;28;20050;-78
2023/02/14 04:22:37;;;;;;;62.13;43.17;;;3.60;99.90;;;;;;4945527;29;20043;-78
2023/02/14 04:25:04;;;;;;;63.33;47.17;;;3.50;99.90;;;;;;4929538;29;20400;-79
2023/02/14 04:27:30;;;;;;;63.37;46.60;;;3.40;99.90;;;;;;4945646;29;20043;-78
2023/02/14 04:29:56;;;;;;;64.80;44.93;;;3.40;99.90;;;;;;4960464;28;20039;-78
2023/02/14 04:32:22;;;;;;;67.63;44.47;;;3.60;99.90;;;;;;4945205;28;20432;-78
2023/02/14 04:34:48;;;;;;;62.67;43.17;;;3.70;99.90;;;;;;4946212;29;20045;-79
2023/02/14 04:37:16;;;;;;;69.30;46.73;;;3.50;99.90;;;;;;4929118;29;20039;-78
2023/02/14 04:39:42;;;;;;;62.30;45.03;;;3.30;99.90;;;;;;4953444;28;20043;-78
2023/02/14 04:42:08;;;;;;;65.57;44.57;;;3.10;99.90;;;;;;4946469;29;20046;-78
2023/02/14 04:44:34;;;;;;;68.50;44.33;;;3.10;99.90;;;;;;4944330;29;20031;-79
2023/02/14 04:47:00;;;;;;;62.40;44.53;;;3.20;99.90;;;;;;4914231;29;20070;-79
2023/02/14 04:49:26;;;;;;;59.17;44.03;;;3.30;99.90;;;;;;4944237;29;20036;-78
2023/02/14 04:51:53;;;;;;;64.27;45.10;;;3.50;99.90;;;;;;4944446;29;20393;-78
2023/02/14 04:54:19;;;;;;;63.70;43.97;;;3.50;99.90;;;;;;4943631;28;20031;-78
2023/02/14 04:56:45;;;;;;;72.90;45.73;;;3.40;99.90;;;;;;4945508;29;20381;-78
2023/02/14 04:59:11;;;;;;;62.60;45.03;;;3.40;99.90;;;;;;4944503;29;20059;-78
2023/02/14 05:01:37;;;;;;;66.60;44.20;;;3.50;99.90;;;;;;4948021;28;20039;-79
2023/02/14 05:04:03;;;;;;;62.00;44.17;;;3.50;99.90;;;;;;4947957;29;20054;-79
2023/02/14 05:06:29;;;;;;;61.27;44.27;;;3.50;99.90;;;;;;4946177;29;20485;-78
2023/02/14 05:08:55;;;;;;;61.13;43.83;;;3.50;99.90;;;;;;4945161;29;20048;-79
2023/02/14 05:11:22;;;;;;;64.03;42.90;;;3.50;99.90;;;;;;4929890;29;20035;-78
2023/02/14 05:13:48;;;;;;;59.90;42.60;;;3.50;99.90;;;;;;4944290;29;20112;-78
2023/02/14 05:16:14;;;;;;;60.57;43.03;;;3.50;99.90;;;;;;4944480;28;20039;-79
2023/02/14 05:18:40;;;;;;;62.87;44.23;;;3.50;99.90;;;;;;4947373;29;20042;-79
2023/02/14 05:21:06;;;;;;;62.67;43.00;;;3.50;99.90;;;;;;4949287;28;20047;-78
2023/02/14 05:23:32;;;;;;;67.10;43.67;;;3.40;99.90;;;;;;4931859;29;20054;-78
2023/02/14 05:25:58;;;;;;;58.90;42.27;;;3.50;99.90;;;;;;4920632;29;20424;-79
2023/02/14 05:28:24;;;;;;;55.60;42.50;;;3.40;99.90;;;;;;4950995;29;20031;-79
2023/02/14 05:30:51;;;;;;;62.30;42.03;;;3.40;99.90;;;;;;4952169;28;20046;-78
2023/02/14 05:33:17;;;;;;;64.67;41.47;;;3.40;99.90;;;;;;4953541;28;20042;-78
2023/02/14 05:35:43;;;;;;;62.70;43.23;;;3.30;99.90;;;;;;4939030;28;20035;-78
2023/02/14 05:38:11;;;;;;;64.20;44.23;;;3.10;99.90;;;;;;4955301;28;20042;-78
2023/02/14 05:40:38;;;;;;;62.80;43.87;;;3.00;99.90;;;;;;4949653;28;20027;-78
2023/02/14 05:43:04;;;;;;;55.23;42.03;;;3.00;99.90;;;;;;4948989;29;20042;-78
2023/02/14 05:45:30;;;;;;;61.63;42.80;;;3.10;99.90;;;;;;4948261;28;20028;-78
2023/02/14 05:47:56;;;;;;;60.80;43.53;;;2.90;99.90;;;;;;4932552;29;20063;-78
2023/02/14 05:50:22;;;;;;;60.50;42.77;;;3.00;99.90;;;;;;4951639;29;20035;-78
2023/02/14 05:52:48;;;;;;;61.47;43.73;;;3.00;99.90;;;;;;4933776;29;20484;-78
2023/02/14 05:55:14;;;;;;;59.60;44.57;;;2.90;99.90;;;;;;4917489;29;20397;-78
2023/02/14 05:57:41;;;;;;;64.20;45.13;;;2.90;99.90;;;;;;4945363;29;20035;-78
2023/02/14 06:00:08;;;;;;;63.87;43.73;;;2.80;99.90;;;;;;4945525;28;20043;-78
2023/02/14 06:02:34;;;;;;;64.17;45.03;;;3.00;99.90;;;;;;4952650;28;20047;-78
2023/02/14 06:05:00;;;;;;;66.37;44.97;;;3.00;99.90;;;;;;4951709;28;20034;-78
2023/02/14 06:07:26;;;;;;;64.83;44.50;;;3.10;99.90;;;;;;4950098;29;20035;-78
2023/02/14 06:09:52;;;;;;;61.43;42.63;;;3.20;99.90;;;;;;4952585;28;20031;-78
2023/02/14 06:12:18;;;;;;;61.10;42.93;;;3.10;99.90;;;;;;4964536;28;20493;-79
2023/02/14 06:14:44;;;;;;;61.77;45.17;;;3.10;99.90;;;;;;4930485;29;20044;-79
2023/02/14 06:17:10;;;;;;;63.33;44.23;;;3.00;99.90;;;;;;4948575;28;20047;-78
2023/02/14 06:19:36;;;;;;;66.17;44.13;;;2.90;99.90;;;;;;4957534;28;20058;-78
2023/02/14 06:22:03;;;;;;;64.80;44.63;;;2.80;99.90;;;;;;4956132;28;20051;-79
2023/02/14 06:24:29;;;;;;;63.83;42.37;;;2.70;99.90;;;;;;4956623;28;20039;-78
2023/02/14 06:26:55;;;;;;;61.23;43.67;;;2.50;99.90;;;;;;4972160;28;20401;-78
2023/02/14 06:29:21;;;;;;;59.47;42.80;;;2.50;99.90;;;;;;4938761;28;20035;-78
2023/02/14 06:31:47;;;;;;;61.43;43.00;;;2.60;99.90;;;;;;4955900;28;20416;-79
2023/02/14 06:34:13;;;;;;;62.53;44.07;;;2.70;99.90;;;;;;4949937;28;20037;-79
2023/02/14 06:36:40;;;;;;;62.30;42.93;;;2.80;99.90;;;;;;4945130;28;20031;-79
2023/02/14 06:39:06;;;;;;;57.33;42.73;;;2.80;99.90;;;;;;4973978;28;20039;-79
2023/02/14 06:41:32;;;;;;;59.33;41.70;;;2.90;99.90;;;;;;4954389;28;20047;-79
2023/02/14 06:43:58;;;;;;;77.40;44.73;;;2.90;99.90;;;;;;4953026;28;20031;-79
2023/02/14 06:46:24;;;;;;;61.23;42.07;;;2.90;99.90;;;;;;4966945;28;20059;-79
2023/02/14 06:48:50;;;;;;;59.23;42.10;;;2.90;99.90;;;;;;4949732;28;20035;-79
2023/02/14 06:51:16;;;;;;;61.17;41.43;;;2.90;99.90;;;;;;4966069;28;20037;-79
2023/02/14 06:53:42;;;;;;;62.53;44.40;;;2.90;99.90;;;;;;4971318;28;20038;-79
2023/02/14 06:56:08;;;;;;;63.27;42.57;;;2.90;99.90;;;;;;4952888;28;20489;-78
2023/02/14 06:58:34;;;;;;;57.30;39.50;;;2.90;99.90;;;;;;4971373;28;20050;-80
2023/02/14 07:01:00;;;;;;;58.67;41.40;;;2.70;99.90;;;;;;4938825;28;20473;-80
2023/02/14 07:03:27;;;;;;;56.97;39.57;;;2.50;99.90;;;;;;4954864;28;20046;-78
2023/02/14 07:05:53;;;;;;;61.13;42.20;;;2.60;99.90;;;;;;4955489;28;20473;-78
2023/02/14 07:08:19;;;;;;;56.10;41.70;;;2.60;99.90;;;;;;4956452;28;20385;-81
2023/02/14 07:10:45;;;;;;;65.60;40.87;;;2.60;99.90;;;;;;4957132;28;20031;-82
2023/02/14 07:13:12;;;;;;;54.80;41.03;;;2.70;99.90;;;;;;4972317;28;20034;-83
2023/02/14 07:15:38;;;;;;;54.27;40.10;;;2.70;99.90;;;;;;4937889;28;20054;-83
2023/02/14 07:18:07;;;;;;;60.10;41.30;;;2.50;99.90;;;;;;4951783;28;20043;-81
2023/02/14 07:20:33;;;;;;;64.87;44.20;;;2.60;99.90;;;;;;4970799;28;20051;-82
2023/02/14 07:23:00;;;;;;;60.23;43.17;;;2.70;99.90;;;;;;4955558;28;20056;-82
2023/02/14 07:25:27;;;;;;;60.10;43.13;;;2.80;99.90;;;;;;4921392;29;20047;-82
2023/02/14 07:27:53;;;;;;;52.63;41.83;;;2.80;99.90;;;;;;4961735;28;20043;-83
2023/02/14 07:30:22;;;;;;;67.93;48.17;;;2.90;99.90;;;;;;4951783;28;20460;-83
2023/02/14 07:32:48;;;;;;;64.13;45.50;;;2.90;99.90;;;;;;4963900;28;20503;-84
2023/02/14 07:35:14;;;;;;;64.20;44.27;;;2.90;99.90;;;;;;4962957;28;20039;-83
2023/02/14 07:37:40;;;;;;;61.10;42.90;;;2.90;99.90;;;;;;4966628;28;20054;-82
2023/02/14 07:40:07;;;;;;;60.50;44.17;;;3.00;99.90;;;;;;4937951;28;20050;-83
2023/02/14 07:42:33;;;;;;;58.90;44.37;;;3.10;99.90;;;;;;4951542;28;20400;-82
2023/02/14 07:44:59;;;;;;;56.03;40.97;;;3.10;99.90;;;;;;4972162;28;20030;-83
2023/02/14 07:47:25;;;;;;;63.20;45.80;;;3.20;99.90;;;;;;4955579;28;20069;-84
2023/02/14 07:49:51;;;;;;;72.13;45.30;;;3.10;99.90;;;;;;4955316;28;20042;-80
2023/02/14 07:52:17;;;;;;;65.40;43.87;;;3.20;99.90;;;;;;4938362;28;20042;-80
2023/02/14 07:54:43;;;;;;;61.57;44.33;;;3.20;99.90;;;;;;4956047;28;20030;-81
2023/02/14 07:57:09;;;;;;;65.73;42.80;;;3.20;99.90;;;;;;4952392;28;20018;-80
2023/02/14 07:59:35;;;;;;;67.60;41.77;;;3.20;99.90;;;;;;4951911;28;20042;-80
2023/02/14 08:02:01;;;;;;;58.33;40.77;;;3.20;99.90;;;;;;4913404;28;20031;-80
2023/02/14 08:04:28;;;;;;;63.90;41.77;;;3.20;99.90;;;;;;4965352;28;20034;-80
2023/02/14 08:06:54;;;;;;;58.70;41.70;;;3.10;99.90;;;;;;4948183;28;20062;-81
2023/02/14 08:09:26;;;;;;;59.77;46.67;;;3.20;99.90;;;;;;4939701;28;20031;-80
2023/02/14 08:14:38;;;;;;;65.43;48.13;;;2.70;99.90;;;;;;4938100;28;20043;-78
2023/02/14 08:17:06;;;;;;;58.17;41.93;;;2.80;99.90;;;;;;4938156;28;20046;-78
2023/02/14 08:19:32;;;;;;;54.30;41.60;;;2.80;99.90;;;;;;4939865;28;20393;-78
2023/02/14 08:21:58;;;;;;;53.87;38.63;;;2.90;99.90;;;;;;4955560;28;20064;-81
2023/02/14 08:24:25;;;;;;;56.10;42.57;;;3.30;99.90;;;;;;4954778;28;20046;-80
2023/02/14 08:26:51;;;;;;;49.53;39.73;;;4.30;99.90;;;;;;4939562;28;20421;-81
2023/02/14 08:29:17;;;;;;;55.03;40.57;;;4.90;99.90;;;;;;4968135;28;20042;-77
2023/02/14 08:31:44;;;;;;;54.07;37.63;;;4.80;99.90;;;;;;4923752;28;20045;-77
2023/02/14 08:34:10;;;;;;;52.37;38.17;;;4.50;99.90;;;;;;4973753;28;20037;-77
2023/02/14 08:36:36;;;;;;;58.30;39.33;;;4.20;99.90;;;;;;4973546;28;20491;-78
2023/02/14 08:39:03;;;;;;;55.03;39.37;;;4.40;99.90;;;;;;4973670;28;20030;-77
2023/02/14 08:41:29;;;;;;;56.23;37.63;;;4.20;99.90;;;;;;4972393;28;20034;-77
2023/02/14 08:43:55;;;;;;;58.23;40.77;;;4.00;99.90;;;;;;4973193;28;20469;-77
2023/02/14 08:46:21;;;;;;;54.73;38.50;;;4.00;99.90;;;;;;4955920;28;20034;-77
2023/02/14 08:48:48;;;;;;;52.50;38.07;;;4.30;99.90;;;;;;4972412;28;20046;-78
2023/02/14 08:51:15;;;;;;;53.87;38.83;;;4.50;99.90;;;;;;4973419;28;20461;-78
2023/02/14 08:53:41;;;;;;;51.17;37.00;;;4.50;99.90;;;;;;4956368;28;20027;-78
2023/02/14 08:56:09;;;;;;;59.07;41.47;;;4.50;99.90;;;;;;4956349;28;20038;-78
2023/02/14 08:58:37;;;;;;;53.40;36.70;;;4.50;99.90;;;;;;4973107;28;20038;-78
2023/02/14 09:01:09;;;;;;;53.50;38.63;;;4.50;99.90;;;;;;4955166;28;20409;-78
2023/02/14 09:03:35;;;;;;;51.27;38.53;;;4.60;99.90;;;;;;4973363;28;20034;-78
2023/02/14 09:06:12;;;;;;;48.03;32.23;;;4.70;99.90;;;;;;4956336;28;20037;-78
2023/02/14 09:08:39;;;;;;;48.23;36.13;;;4.60;99.90;;;;;;4975823;28;20400;-79
2023/02/14 09:11:17;;;;;;;56.57;37.53;;;4.70;99.90;;;;;;4975893;28;20469;-79
2023/02/14 09:13:44;;;;;;;52.70;41.13;;;4.70;99.90;;;;;;4976296;28;20034;-79
2023/02/14 09:16:11;;;;;;;49.67;40.60;;;4.90;99.90;;;;;;4959147;28;20023;-79
2023/02/14 09:18:37;;;;;;;51.37;39.23;;;5.20;99.90;;;;;;4977104;28;20034;-79
2023/02/14 09:21:08;;;;;;;47.20;36.20;;;5.60;99.90;;;;;;4968337;28;20053;-79
2023/02/14 09:23:34;;;;;;;44.45;35.40;;;6.10;99.90;;;;;;4994719;28;20047;-79
2023/02/14 09:26:05;;;;;;;47.07;36.83;;;6.00;99.90;;;;;;4943406;28;20031;-79
2023/02/14 09:28:32;;;;;;;47.42;37.15;;;6.20;99.90;;;;;;4976818;28;20026;-79
2023/02/14 09:30:59;;;;;;;47.60;35.90;;;6.60;99.90;;;;;;4975411;28;20027;-79
2023/02/14 09:36:13;;;;;;;45.92;33.75;;;8.00;99.90;;;;;;4963189;28;20033;-79
2023/02/14 09:38:39;;;;;;;43.38;36.05;;;8.40;99.90;;;;;;4975344;28;20034;-80
2023/02/14 09:41:07;;;;;;;43.40;36.60;;;7.80;99.90;;;;;;4942441;28;20034;-79
2023/02/14 09:43:38;;;;;;;44.20;35.28;;;8.10;99.90;;;;;;4975384;28;20038;-80
2023/02/14 09:46:04;;;;;;;47.28;36.25;;;8.30;99.90;;;;;;4958842;28;20042;-79
2023/02/14 09:48:35;;;;;;;45.60;36.42;;;8.50;99.90;;;;;;4975300;28;20038;-79
2023/02/14 09:51:13;;;;;;;46.13;35.90;;;8.50;99.90;;;;;;4976344;28;20464;-80
2023/02/14 09:53:53;;;;;;;40.28;35.25;;;8.50;99.90;;;;;;4959326;28;20031;-79
2023/02/14 09:56:24;;;;;;;42.60;35.67;;;8.80;99.90;;;;;;4974857;28;20042;-79
2023/02/14 09:59:33;;;;;;;46.70;36.20;;;8.90;99.90;;;;;;4975356;28;20037;-80
2023/02/14 10:02:30;;;;;;;42.53;36.97;;;9.20;99.90;;;;;;4918605;28;20040;-80
2023/02/14 10:05:16;;;;;;;43.90;35.47;;;9.60;99.90;;;;;;4921512;29;20036;-80
2023/02/14 10:07:45;;;;;;;44.70;36.92;;;8.90;99.90;;;;;;4903605;29;20524;-79
2023/02/14 10:10:29;;;;;;;44.28;34.35;;;8.40;99.90;;;;;;4919398;29;20036;-79
2023/02/14 10:13:04;;;;;;;46.63;36.42;;;8.30;99.90;;;;;;4936940;29;20528;-78
2023/02/14 10:15:36;;;;;;;44.63;35.92;;;8.50;99.90;;;;;;4939119;28;20024;-80
2023/02/14 10:18:07;;;;;;;42.45;34.58;;;8.40;99.90;;;;;;4922718;28;20035;-80
2023/02/14 10:20:36;;;;;;;45.15;36.17;;;8.60;99.90;;;;;;4934024;29;20047;-80
2023/02/14 10:23:33;;;;;;;44.75;36.92;;;8.50;99.90;;;;;;4918943;29;20478;-80
2023/02/14 10:26:01;;;;;;;42.33;34.38;;;8.70;99.90;;;;;;4915927;29;20032;-80
2023/02/14 10:28:36;;;;;;;43.38;36.40;;;8.70;99.90;;;;;;4935012;29;20046;-79
2023/02/14 10:31:10;;;;;;;43.83;34.55;;;9.00;99.90;;;;;;4934091;28;20168;-80
2023/02/14 10:33:38;;;;;;;45.72;36.88;;;9.30;99.90;;;;;;4935080;29;20042;-80
2023/02/14 10:36:11;;;;;;;42.20;33.78;;;9.10;99.90;;;;;;4934927;29;20496;-80
2023/02/14 10:38:54;;;;;;;44.10;37.10;;;9.00;99.90;;;;;;4949655;28;20036;-80
2023/02/14 10:41:31;;;;;;;43.15;35.60;;;9.10;99.90;;;;;;4943337;28;20023;-80
2023/02/14 10:44:22;;;;;;;45.05;36.33;;;9.10;99.90;;;;;;4958177;28;20042;-80
2023/02/14 10:47:01;;;;;;;45.22;37.20;;;9.30;99.90;;;;;;4960259;28;20044;-80
2023/02/14 10:50:01;;;;;;;43.55;35.70;;;9.30;99.90;;;;;;4958102;28;20034;-80
2023/02/14 10:53:05;;;;;;;43.95;37.15;;;9.30;99.90;;;;;;4962969;28;20042;-80
2023/02/14 10:55:46;;;;;;;40.35;35.03;;;9.40;99.90;;;;;;4914817;29;20040;-80
2023/02/14 10:58:15;;;;;;;40.58;35.20;;;9.60;99.90;;;;;;4914671;29;20144;-80
2023/02/14 11:01:11;;;;;;;40.53;35.80;;;9.70;99.90;;;;;;4914857;29;20039;-80
2023/02/14 11:03:38;;;;;;;47.20;36.00;;;9.80;99.90;;;;;;4914150;29;20043;-80
2023/02/14 11:06:04;;;;;;;42.80;38.00;;;10.20;99.90;;;;;;4899609;29;20066;-80
2023/02/14 11:08:35;;;;;;;43.08;37.80;;;10.40;99.90;;;;;;4899064;29;20044;-80
2023/02/14 11:11:17;;;;;;;41.95;36.30;;;10.50;99.90;;;;;;4915251;29;20409;-80
2023/02/14 11:13:43;;;;;;;39.50;35.20;;;10.40;99.90;;;;;;4915135;29;20163;-79
2023/02/14 11:16:11;;;;;;;48.72;35.75;;;10.40;99.90;;;;;;4915040;29;20040;-80
2023/02/14 11:18:38;;;;;;;42.10;37.00;;;10.20;99.90;;;;;;4915151;29;20517;-80
2023/02/14 11:21:10;;;;;;;40.13;35.47;;;10.40;99.90;;;;;;4914910;29;20062;-80
2023/02/14 11:23:39;;;;;;;;;;;10.40;99.90;;;;;;4915345;29;20032;-80
2023/02/14 11:26:23;;;;;;;41.97;34.78;;;10.30;99.90;;;;;;4899519;29;19907;-80
2023/02/14 11:28:59;;;;;;;42.42;35.30;;;10.20;99.90;;;;;;4899127;29;20535;-80
2023/02/14 11:31:33;;;;;;;49.47;37.08;;;10.30;99.90;;;;;;4914945;28;20040;-80
2023/02/14 11:34:00;;;;;;;49.13;37.88;;;10.40;99.90;;;;;;4960868;28;20027;-80
2023/02/14 11:36:26;;;;;;;42.53;35.92;;;10.60;99.90;;;;;;4960627;28;20387;-80
2023/02/14 11:39:25;;;;;;;41.80;37.03;;;10.70;99.90;;;;;;4976264;28;20041;-80
2023/02/14 11:41:53;;;;;;;44.90;37.33;;;10.80;99.90;;;;;;4952742;28;20031;-80
2023/02/14 11:44:27;;;;;;;43.53;38.28;;;10.90;99.90;;;;;;4937229;28;20473;-80
2023/02/14 11:46:55;;;;;;;45.13;36.65;;;11.00;99.90;;;;;;4937072;28;20043;-80
2023/02/14 11:49:27;;;;;;;46.05;40.25;;;11.00;99.90;;;;;;4933788;29;20044;-80
2023/02/14 11:51:53;;;;;;;42.10;37.53;;;11.10;99.90;;;;;;4933395;29;20044;-80
2023/02/14 11:54:31;;;;;;;44.22;39.20;;;11.30;99.90;;;;;;4917664;29;20061;-80
2023/02/14 11:57:07;;;;;;;45.58;37.63;;;11.30;99.90;;;;;;4933608;29;20042;-80
2023/02/14 11:59:42;;;;;;;44.08;36.72;;;11.70;99.90;;;;;;4932862;29;20597;-80
2023/02/14 12:02:41;;;;;;;41.78;37.38;;;11.70;99.90;;;;;;4933060;28;20055;-80
2023/02/14 12:05:47;;;;;;;43.22;38.50;;;11.80;99.90;;;;;;4923123;29;20035;-80
2023/02/14 12:08:13;;;;;;;42.50;38.05;;;11.70;99.90;;;;;;4877021;29;20052;-80
2023/02/14 12:10:40;;;;;;;44.17;37.35;;;11.70;99.90;;;;;;4846158;29;20049;-80
2023/02/14 12:13:06;;;;;;;42.45;37.78;;;11.70;99.90;;;;;;4846325;29;20040;-80
2023/02/14 12:15:39;;;;;;;41.97;37.45;;;11.70;99.90;;;;;;4860878;29;20040;-80
2023/02/14 12:18:08;;;;;;;43.63;39.10;;;11.90;99.90;;;;;;4859257;29;20036;-80
2023/02/14 12:21:00;;;;;;;41.90;37.42;;;12.10;99.90;;;;;;4899322;29;20056;-80
2023/02/14 12:23:40;;;;;;;42.85;38.35;;;12.20;99.90;;;;;;4883119;29;20051;-80
2023/02/14 12:26:31;;;;;;;41.92;37.55;;;12.20;99.90;;;;;;4884574;29;20040;-80
2023/02/14 12:29:13;;;;;;;42.33;37.53;;;12.30;99.90;;;;;;4898351;29;20052;-80
2023/02/14 12:31:40;;;;;;;43.42;38.95;;;12.30;99.90;;;;;;4883969;29;20037;-80
2023/02/14 12:34:09;;;;;;;42.45;38.08;;;12.40;99.90;;;;;;4898714;29;20474;-80
2023/02/14 12:37:03;;;;;;;41.22;36.92;;;12.60;99.90;;;;;;4882717;29;20493;-80
2023/02/14 12:39:41;;;;;;;41.03;37.03;;;12.70;99.90;;;;;;4900801;29;20137;-80
2023/02/14 12:42:10;;;;;;;42.35;38.22;;;12.50;99.90;;;;;;4915343;29;20032;-80
2023/02/14 12:44:49;;;;;;;41.88;37.50;;;12.40;99.90;;;;;;4981055;28;20061;-80
2023/02/14 12:47:18;;;;;;;44.55;37.42;;;12.50;99.90;;;;;;4975838;28;20065;-80
2023/02/14 12:49:48;;;;;;;41.13;36.72;;;12.60;99.90;;;;;;4959862;28;20485;-80
2023/02/14 12:52:27;;;;;;;39.70;35.67;;;12.60;99.90;;;;;;4976195;28;20495;-80
2023/02/14 12:54:56;;;;;;;41.08;36.88;;;12.70;99.90;;;;;;4960212;28;20045;-80
2023/02/14 12:57:43;;;;;;;41.53;37.25;;;12.80;99.90;;;;;;4977474;28;20031;-80
2023/02/14 13:00:26;;;;;;;40.92;36.35;;;12.90;99.90;;;;;;4977046;28;20037;-81
2023/02/14 13:03:16;;;;;;;40.17;36.30;;;13.10;99.90;;;;;;4960045;28;20472;-80
2023/02/14 13:05:58;;;;;;;39.55;35.72;;;13.20;99.90;;;;;;4975843;28;20027;-80
2023/02/14 13:09:02;;;;;;;39.80;35.70;;;13.40;99.90;;;;;;4976029;28;20627;-80
2023/02/14 13:11:46;;;;;;;38.95;35.25;;;13.40;99.90;;;;;;4959436;28;20400;-80
2023/02/14 13:14:24;;;;;;;38.00;34.20;;;13.40;99.90;;;;;;4977483;28;20361;-80
2023/02/14 13:17:23;;;;;;;39.30;35.40;;;13.40;99.90;;;;;;4943300;28;20038;-80